sensor_id;sensor_type;location;lat;lon;timestamp;temperature;humidity
72440;DHT22;60446;50.752;4.352;2024-01-10T00:01:26;-6.40;79.10
72440;DHT22;60446;50.752;4.352;2024-01-10T00:03:54;-6.40;80.10
72440;DHT22;60446;50.752;4.352;2024-01-10T00:06:21;-6.40;79.00
72440;DHT22;60446;50.752;4.352;2024-01-10T00:08:50;-6.40;79.80
72440;DHT22;60446;50.752;4.352;2024-01-10T00:11:17;-6.40;79.00
72440;DHT22;60446;50.752;4.352;2024-01-10T00:13:45;-6.50;80.00
72440;DHT22;60446;50.752;4.352;2024-01-10T00:16:12;-6.50;80.20
72440;DHT22;60446;50.752;4.352;2024-01-10T00:18:42;-6.50;80.00
72440;DHT22;60446;50.752;4.352;2024-01-10T00:21:10;-6.50;80.10
72440;DHT22;60446;50.752;4.352;2024-01-10T00:23:37;-6.50;80.20
72440;DHT22;60446;50.752;4.352;2024-01-10T00:26:04;-6.50;80.20
72440;DHT22;60446;50.752;4.352;2024-01-10T00:28:31;-6.50;80.70
72440;DHT22;60446;50.752;4.352;2024-01-10T00:30:59;-6.50;80.80
72440;DHT22;60446;50.752;4.352;2024-01-10T00:33:26;-6.50;80.70
72440;DHT22;60446;50.752;4.352;2024-01-10T00:35:54;-6.50;81.00
72440;DHT22;60446;50.752;4.352;2024-01-10T00:38:23;-6.50;81.00
72440;DHT22;60446;50.752;4.352;2024-01-10T00:40:53;-6.50;82.80
72440;DHT22;60446;50.752;4.352;2024-01-10T00:43:20;-6.50;81.80
72440;DHT22;60446;50.752;4.352;2024-01-10T00:45:48;-6.50;81.50
72440;DHT22;60446;50.752;4.352;2024-01-10T00:48:15;-6.60;82.10
72440;DHT22;60446;50.752;4.352;2024-01-10T00:50:44;-6.50;82.30
72440;DHT22;60446;50.752;4.352;2024-01-10T00:53:11;-6.50;82.50
72440;DHT22;60446;50.752;4.352;2024-01-10T00:55:38;-6.60;82.70
72440;DHT22;60446;50.752;4.352;2024-01-10T00:58:07;-6.60;82.10
72440;DHT22;60446;50.752;4.352;2024-01-10T01:00:34;-6.70;83.40
72440;DHT22;60446;50.752;4.352;2024-01-10T01:03:01;-6.70;83.10
72440;DHT22;60446;50.752;4.352;2024-01-10T01:05:28;-6.70;83.70
72440;DHT22;60446;50.752;4.352;2024-01-10T01:07:56;-6.70;84.20
72440;DHT22;60446;50.752;4.352;2024-01-10T01:10:23;-6.70;83.30
72440;DHT22;60446;50.752;4.352;2024-01-10T01:12:50;-6.80;83.70
72440;DHT22;60446;50.752;4.352;2024-01-10T01:15:17;-6.70;84.40
72440;DHT22;60446;50.752;4.352;2024-01-10T01:17:44;-6.70;83.70
72440;DHT22;60446;50.752;4.352;2024-01-10T01:20:12;-6.70;84.20
72440;DHT22;60446;50.752;4.352;2024-01-10T01:22:40;-6.80;83.90
72440;DHT22;60446;50.752;4.352;2024-01-10T01:25:07;-6.80;83.30
72440;DHT22;60446;50.752;4.352;2024-01-10T01:27:35;-6.80;84.20
72440;DHT22;60446;50.752;4.352;2024-01-10T01:30:03;-6.80;84.60
72440;DHT22;60446;50.752;4.352;2024-01-10T01:32:30;-6.80;84.80
72440;DHT22;60446;50.752;4.352;2024-01-10T01:34:58;-6.80;84.70
72440;DHT22;60446;50.752;4.352;2024-01-10T01:37:25;-6.80;84.90
72440;DHT22;60446;50.752;4.352;2024-01-10T01:39:53;-6.90;85.40
72440;DHT22;60446;50.752;4.352;2024-01-10T01:42:20;-6.90;85.90
72440;DHT22;60446;50.752;4.352;2024-01-10T01:44:47;-6.90;85.60
72440;DHT22;60446;50.752;4.352;2024-01-10T01:47:15;-6.90;86.10
72440;DHT22;60446;50.752;4.352;2024-01-10T01:49:42;-6.90;86.20
72440;DHT22;60446;50.752;4.352;2024-01-10T01:52:10;-6.90;85.70
72440;DHT22;60446;50.752;4.352;2024-01-10T01:54:40;-6.90;85.80
72440;DHT22;60446;50.752;4.352;2024-01-10T01:57:07;-6.90;85.40
72440;DHT22;60446;50.752;4.352;2024-01-10T01:59:34;-6.90;85.80
72440;DHT22;60446;50.752;4.352;2024-01-10T02:02:03;-7.00;86.50
72440;DHT22;60446;50.752;4.352;2024-01-10T02:04:31;-7.00;86.10
72440;DHT22;60446;50.752;4.352;2024-01-10T02:07:00;-7.00;86.00
72440;DHT22;60446;50.752;4.352;2024-01-10T02:09:28;-7.00;86.40
72440;DHT22;60446;50.752;4.352;2024-01-10T02:11:55;-7.00;87.00
72440;DHT22;60446;50.752;4.352;2024-01-10T02:14:22;-7.00;86.10
72440;DHT22;60446;50.752;4.352;2024-01-10T02:16:50;-7.00;87.40
72440;DHT22;60446;50.752;4.352;2024-01-10T02:19:23;-7.00;87.90
72440;DHT22;60446;50.752;4.352;2024-01-10T02:22:11;-7.00;88.30
72440;DHT22;60446;50.752;4.352;2024-01-10T02:24:39;-7.00;87.30
72440;DHT22;60446;50.752;4.352;2024-01-10T02:27:07;-7.00;86.30
72440;DHT22;60446;50.752;4.352;2024-01-10T02:29:34;-7.00;88.20
72440;DHT22;60446;50.752;4.352;2024-01-10T02:32:02;-7.00;88.90
72440;DHT22;60446;50.752;4.352;2024-01-10T02:34:30;-7.00;86.90
72440;DHT22;60446;50.752;4.352;2024-01-10T02:36:58;-7.00;86.70
72440;DHT22;60446;50.752;4.352;2024-01-10T02:39:25;-7.00;86.50
72440;DHT22;60446;50.752;4.352;2024-01-10T02:41:52;-7.00;87.00
72440;DHT22;60446;50.752;4.352;2024-01-10T02:44:19;-7.00;87.00
72440;DHT22;60446;50.752;4.352;2024-01-10T02:46:46;-7.00;86.90
72440;DHT22;60446;50.752;4.352;2024-01-10T02:49:14;-7.10;87.30
72440;DHT22;60446;50.752;4.352;2024-01-10T02:51:41;-7.10;87.70
72440;DHT22;60446;50.752;4.352;2024-01-10T02:54:08;-7.10;87.60
72440;DHT22;60446;50.752;4.352;2024-01-10T02:56:35;-7.00;89.20
72440;DHT22;60446;50.752;4.352;2024-01-10T02:59:02;-7.10;88.20
72440;DHT22;60446;50.752;4.352;2024-01-10T03:01:29;-7.10;88.00
72440;DHT22;60446;50.752;4.352;2024-01-10T03:03:57;-7.10;88.50
72440;DHT22;60446;50.752;4.352;2024-01-10T03:06:24;-7.10;88.70
72440;DHT22;60446;50.752;4.352;2024-01-10T03:08:54;-7.10;88.60
72440;DHT22;60446;50.752;4.352;2024-01-10T03:11:21;-7.10;88.70
72440;DHT22;60446;50.752;4.352;2024-01-10T03:13:51;-7.10;89.50
72440;DHT22;60446;50.752;4.352;2024-01-10T03:16:27;-7.10;88.50
72440;DHT22;60446;50.752;4.352;2024-01-10T03:18:54;-7.10;88.40
72440;DHT22;60446;50.752;4.352;2024-01-10T03:21:22;-7.10;88.80
72440;DHT22;60446;50.752;4.352;2024-01-10T03:23:57;-7.20;88.70
72440;DHT22;60446;50.752;4.352;2024-01-10T03:26:26;-7.20;89.70
72440;DHT22;60446;50.752;4.352;2024-01-10T03:28:54;-7.20;88.30
72440;DHT22;60446;50.752;4.352;2024-01-10T03:31:21;-7.10;86.90
72440;DHT22;60446;50.752;4.352;2024-01-10T03:33:53;-7.20;87.20
72440;DHT22;60446;50.752;4.352;2024-01-10T03:36:20;-7.20;87.10
72440;DHT22;60446;50.752;4.352;2024-01-10T03:38:47;-7.20;87.80
72440;DHT22;60446;50.752;4.352;2024-01-10T03:41:16;-7.20;88.10
72440;DHT22;60446;50.752;4.352;2024-01-10T03:43:44;-7.20;86.60
72440;DHT22;60446;50.752;4.352;2024-01-10T03:46:12;-7.10;87.20
72440;DHT22;60446;50.752;4.352;2024-01-10T03:48:40;-7.10;87.70
72440;DHT22;60446;50.752;4.352;2024-01-10T03:51:18;-7.20;89.70
72440;DHT22;60446;50.752;4.352;2024-01-10T03:53:46;-7.20;89.50
72440;DHT22;60446;50.752;4.352;2024-01-10T03:56:13;-7.20;88.90
72440;DHT22;60446;50.752;4.352;2024-01-10T03:58:41;-7.20;89.90
72440;DHT22;60446;50.752;4.352;2024-01-10T04:01:08;-7.20;87.70
72440;DHT22;60446;50.752;4.352;2024-01-10T04:03:36;-7.20;89.80
72440;DHT22;60446;50.752;4.352;2024-01-10T04:06:03;-7.30;89.00
72440;DHT22;60446;50.752;4.352;2024-01-10T04:08:33;-7.30;88.30
72440;DHT22;60446;50.752;4.352;2024-01-10T04:11:00;-7.30;87.60
72440;DHT22;60446;50.752;4.352;2024-01-10T04:13:30;-7.30;87.50
72440;DHT22;60446;50.752;4.352;2024-01-10T04:15:57;-7.40;87.80
72440;DHT22;60446;50.752;4.352;2024-01-10T04:18:24;-7.30;87.50
72440;DHT22;60446;50.752;4.352;2024-01-10T04:20:52;-7.40;87.70
72440;DHT22;60446;50.752;4.352;2024-01-10T04:23:19;-7.40;88.30
72440;DHT22;60446;50.752;4.352;2024-01-10T04:25:46;-7.50;88.60
72440;DHT22;60446;50.752;4.352;2024-01-10T04:28:13;-7.50;89.00
72440;DHT22;60446;50.752;4.352;2024-01-10T04:30:40;-7.50;89.00
72440;DHT22;60446;50.752;4.352;2024-01-10T04:33:08;-7.50;89.10
72440;DHT22;60446;50.752;4.352;2024-01-10T04:35:35;-7.60;89.90
72440;DHT22;60446;50.752;4.352;2024-01-10T04:38:02;-7.50;89.80
72440;DHT22;60446;50.752;4.352;2024-01-10T04:40:30;-7.60;89.70
72440;DHT22;60446;50.752;4.352;2024-01-10T04:42:57;-7.60;89.60
72440;DHT22;60446;50.752;4.352;2024-01-10T04:45:24;-7.60;90.40
72440;DHT22;60446;50.752;4.352;2024-01-10T04:47:51;-7.50;90.20
72440;DHT22;60446;50.752;4.352;2024-01-10T04:50:18;-7.60;90.20
72440;DHT22;60446;50.752;4.352;2024-01-10T04:52:46;-7.60;89.80
72440;DHT22;60446;50.752;4.352;2024-01-10T04:55:14;-7.70;90.10
72440;DHT22;60446;50.752;4.352;2024-01-10T04:57:41;-7.70;90.60
72440;DHT22;60446;50.752;4.352;2024-01-10T05:00:08;-7.70;90.80
72440;DHT22;60446;50.752;4.352;2024-01-10T05:02:37;-7.70;91.30
72440;DHT22;60446;50.752;4.352;2024-01-10T05:05:06;-7.70;90.70
72440;DHT22;60446;50.752;4.352;2024-01-10T05:07:33;-7.70;90.50
72440;DHT22;60446;50.752;4.352;2024-01-10T05:10:00;-7.60;90.70
72440;DHT22;60446;50.752;4.352;2024-01-10T05:12:28;-7.60;90.50
72440;DHT22;60446;50.752;4.352;2024-01-10T05:14:55;-7.70;90.20
72440;DHT22;60446;50.752;4.352;2024-01-10T05:17:22;-7.70;91.30
72440;DHT22;60446;50.752;4.352;2024-01-10T05:19:49;-7.70;91.00
72440;DHT22;60446;50.752;4.352;2024-01-10T05:22:17;-7.70;92.10
72440;DHT22;60446;50.752;4.352;2024-01-10T05:24:44;-7.70;91.00
72440;DHT22;60446;50.752;4.352;2024-01-10T05:27:12;-7.70;90.50
72440;DHT22;60446;50.752;4.352;2024-01-10T05:29:39;-7.80;92.20
72440;DHT22;60446;50.752;4.352;2024-01-10T05:32:06;-7.80;91.70
72440;DHT22;60446;50.752;4.352;2024-01-10T05:34:34;-7.80;92.40
72440;DHT22;60446;50.752;4.352;2024-01-10T05:37:01;-7.80;93.00
72440;DHT22;60446;50.752;4.352;2024-01-10T05:39:29;-7.80;93.40
72440;DHT22;60446;50.752;4.352;2024-01-10T05:41:58;-7.70;94.80
72440;DHT22;60446;50.752;4.352;2024-01-10T05:44:25;-7.70;94.30
72440;DHT22;60446;50.752;4.352;2024-01-10T05:46:52;-7.70;93.30
72440;DHT22;60446;50.752;4.352;2024-01-10T05:49:19;-7.80;94.00
72440;DHT22;60446;50.752;4.352;2024-01-10T05:51:47;-7.80;92.90
72440;DHT22;60446;50.752;4.352;2024-01-10T05:54:14;-7.80;92.60
72440;DHT22;60446;50.752;4.352;2024-01-10T05:56:42;-7.70;92.70
72440;DHT22;60446;50.752;4.352;2024-01-10T05:59:09;-7.70;93.70
72440;DHT22;60446;50.752;4.352;2024-01-10T06:01:39;-7.60;92.60
72440;DHT22;60446;50.752;4.352;2024-01-10T06:04:06;-7.70;93.50
72440;DHT22;60446;50.752;4.352;2024-01-10T06:06:34;-7.80;93.30
72440;DHT22;60446;50.752;4.352;2024-01-10T06:09:01;-7.70;94.30
72440;DHT22;60446;50.752;4.352;2024-01-10T06:11:29;-7.60;93.90
72440;DHT22;60446;50.752;4.352;2024-01-10T06:13:56;-7.70;93.20
72440;DHT22;60446;50.752;4.352;2024-01-10T06:16:24;-7.70;93.10
72440;DHT22;60446;50.752;4.352;2024-01-10T06:18:51;-7.60;94.20
72440;DHT22;60446;50.752;4.352;2024-01-10T06:21:19;-7.60;95.10
72440;DHT22;60446;50.752;4.352;2024-01-10T06:23:47;-7.60;92.60
72440;DHT22;60446;50.752;4.352;2024-01-10T06:26:14;-7.60;92.70
72440;DHT22;60446;50.752;4.352;2024-01-10T06:28:42;-7.60;93.20
72440;DHT22;60446;50.752;4.352;2024-01-10T06:31:09;-7.60;92.20
72440;DHT22;60446;50.752;4.352;2024-01-10T06:33:38;-7.70;93.90
72440;DHT22;60446;50.752;4.352;2024-01-10T06:36:07;-7.60;95.20
72440;DHT22;60446;50.752;4.352;2024-01-10T06:38:34;-7.50;95.60
72440;DHT22;60446;50.752;4.352;2024-01-10T06:41:10;-7.60;93.30
72440;DHT22;60446;50.752;4.352;2024-01-10T06:43:37;-7.60;91.90
72440;DHT22;60446;50.752;4.352;2024-01-10T06:46:05;-7.70;91.90
72440;DHT22;60446;50.752;4.352;2024-01-10T06:48:32;-7.60;92.60
72440;DHT22;60446;50.752;4.352;2024-01-10T06:50:59;-7.60;93.30
72440;DHT22;60446;50.752;4.352;2024-01-10T06:53:27;-7.50;93.50
72440;DHT22;60446;50.752;4.352;2024-01-10T06:55:54;-7.50;91.80
72440;DHT22;60446;50.752;4.352;2024-01-10T06:58:21;-7.50;91.50
72440;DHT22;60446;50.752;4.352;2024-01-10T07:00:48;-7.50;91.80
72440;DHT22;60446;50.752;4.352;2024-01-10T07:03:17;-7.60;91.80
72440;DHT22;60446;50.752;4.352;2024-01-10T07:05:45;-7.60;90.40
72440;DHT22;60446;50.752;4.352;2024-01-10T07:08:14;-7.50;90.10
72440;DHT22;60446;50.752;4.352;2024-01-10T07:10:41;-7.50;89.90
72440;DHT22;60446;50.752;4.352;2024-01-10T07:13:08;-7.50;89.70
72440;DHT22;60446;50.752;4.352;2024-01-10T07:15:37;-7.50;91.40
72440;DHT22;60446;50.752;4.352;2024-01-10T07:18:05;-7.50;93.80
72440;DHT22;60446;50.752;4.352;2024-01-10T07:20:33;-7.50;92.80
72440;DHT22;60446;50.752;4.352;2024-01-10T07:23:00;-7.50;93.00
72440;DHT22;60446;50.752;4.352;2024-01-10T07:25:27;-7.50;93.10
72440;DHT22;60446;50.752;4.352;2024-01-10T07:27:54;-7.50;92.90
72440;DHT22;60446;50.752;4.352;2024-01-10T07:30:22;-7.40;91.50
72440;DHT22;60446;50.752;4.352;2024-01-10T07:32:49;-7.40;91.00
72440;DHT22;60446;50.752;4.352;2024-01-10T07:35:16;-7.40;91.20
72440;DHT22;60446;50.752;4.352;2024-01-10T07:37:44;-7.40;92.40
72440;DHT22;60446;50.752;4.352;2024-01-10T07:40:11;-7.50;93.50
72440;DHT22;60446;50.752;4.352;2024-01-10T07:42:40;-7.50;92.80
72440;DHT22;60446;50.752;4.352;2024-01-10T07:45:08;-7.50;92.40
72440;DHT22;60446;50.752;4.352;2024-01-10T07:47:36;-7.50;92.80
72440;DHT22;60446;50.752;4.352;2024-01-10T07:50:07;-7.50;92.10
72440;DHT22;60446;50.752;4.352;2024-01-10T07:52:36;-7.50;92.90
72440;DHT22;60446;50.752;4.352;2024-01-10T07:55:04;-7.60;92.80
72440;DHT22;60446;50.752;4.352;2024-01-10T07:57:32;-7.60;93.00
72440;DHT22;60446;50.752;4.352;2024-01-10T08:00:07;-7.70;93.60
72440;DHT22;60446;50.752;4.352;2024-01-10T08:02:38;-7.70;94.20
72440;DHT22;60446;50.752;4.352;2024-01-10T08:05:07;-7.60;93.10
72440;DHT22;60446;50.752;4.352;2024-01-10T08:07:37;-7.60;93.50
72440;DHT22;60446;50.752;4.352;2024-01-10T08:10:10;-7.60;92.80
72440;DHT22;60446;50.752;4.352;2024-01-10T08:12:37;-7.60;93.10
72440;DHT22;60446;50.752;4.352;2024-01-10T08:15:11;-7.50;92.50
72440;DHT22;60446;50.752;4.352;2024-01-10T08:17:38;-7.50;92.30
72440;DHT22;60446;50.752;4.352;2024-01-10T08:20:08;-7.50;92.50
72440;DHT22;60446;50.752;4.352;2024-01-10T08:22:38;-7.60;92.60
72440;DHT22;60446;50.752;4.352;2024-01-10T08:25:05;-7.60;91.70
72440;DHT22;60446;50.752;4.352;2024-01-10T08:27:35;-7.60;92.70
72440;DHT22;60446;50.752;4.352;2024-01-10T08:30:03;-7.50;92.60
72440;DHT22;60446;50.752;4.352;2024-01-10T08:32:36;-7.50;92.20
72440;DHT22;60446;50.752;4.352;2024-01-10T08:35:04;-7.40;92.60
72440;DHT22;60446;50.752;4.352;2024-01-10T08:37:31;-7.40;92.70
72440;DHT22;60446;50.752;4.352;2024-01-10T08:39:59;-7.30;92.30
72440;DHT22;60446;50.752;4.352;2024-01-10T08:42:27;-7.30;91.80
72440;DHT22;60446;50.752;4.352;2024-01-10T08:44:55;-7.20;91.60
72440;DHT22;60446;50.752;4.352;2024-01-10T08:47:22;-7.10;91.20
72440;DHT22;60446;50.752;4.352;2024-01-10T08:49:50;-7.20;92.00
72440;DHT22;60446;50.752;4.352;2024-01-10T08:52:18;-7.10;91.40
72440;DHT22;60446;50.752;4.352;2024-01-10T08:54:45;-7.10;91.30
72440;DHT22;60446;50.752;4.352;2024-01-10T08:57:12;-7.00;89.70
72440;DHT22;60446;50.752;4.352;2024-01-10T08:59:41;-7.00;90.60
72440;DHT22;60446;50.752;4.352;2024-01-10T09:02:09;-6.90;90.90
72440;DHT22;60446;50.752;4.352;2024-01-10T09:04:36;-6.90;89.40
72440;DHT22;60446;50.752;4.352;2024-01-10T09:07:04;-6.80;88.60
72440;DHT22;60446;50.752;4.352;2024-01-10T09:09:31;-6.80;89.70
72440;DHT22;60446;50.752;4.352;2024-01-10T09:11:59;-6.80;89.30
72440;DHT22;60446;50.752;4.352;2024-01-10T09:14:26;-6.70;89.10
72440;DHT22;60446;50.752;4.352;2024-01-10T09:16:54;-6.70;88.00
72440;DHT22;60446;50.752;4.352;2024-01-10T09:19:21;-6.50;89.20
72440;DHT22;60446;50.752;4.352;2024-01-10T09:21:48;-6.40;88.10
72440;DHT22;60446;50.752;4.352;2024-01-10T09:24:16;-6.40;87.30
72440;DHT22;60446;50.752;4.352;2024-01-10T09:26:55;-6.40;85.70
72440;DHT22;60446;50.752;4.352;2024-01-10T09:29:24;-6.30;86.80
72440;DHT22;60446;50.752;4.352;2024-01-10T09:31:53;-6.30;85.50
72440;DHT22;60446;50.752;4.352;2024-01-10T09:34:21;-6.30;85.30
72440;DHT22;60446;50.752;4.352;2024-01-10T09:36:49;-6.20;86.00
72440;DHT22;60446;50.752;4.352;2024-01-10T09:39:16;-6.10;85.50
72440;DHT22;60446;50.752;4.352;2024-01-10T09:41:48;-6.00;84.60
72440;DHT22;60446;50.752;4.352;2024-01-10T09:44:18;-5.90;85.30
72440;DHT22;60446;50.752;4.352;2024-01-10T09:46:51;-5.80;85.10
72440;DHT22;60446;50.752;4.352;2024-01-10T09:49:21;-5.60;84.70
72440;DHT22;60446;50.752;4.352;2024-01-10T09:51:52;-5.60;83.40
72440;DHT22;60446;50.752;4.352;2024-01-10T09:54:21;-5.60;84.20
72440;DHT22;60446;50.752;4.352;2024-01-10T09:56:51;-5.40;83.30
72440;DHT22;60446;50.752;4.352;2024-01-10T09:59:20;-5.40;83.20
72440;DHT22;60446;50.752;4.352;2024-01-10T10:01:47;-5.30;81.00
72440;DHT22;60446;50.752;4.352;2024-01-10T10:04:16;-5.40;81.20
72440;DHT22;60446;50.752;4.352;2024-01-10T10:06:44;-5.40;80.10
72440;DHT22;60446;50.752;4.352;2024-01-10T10:09:14;-5.40;81.00
72440;DHT22;60446;50.752;4.352;2024-01-10T10:11:42;-5.30;80.50
72440;DHT22;60446;50.752;4.352;2024-01-10T10:14:17;-5.20;80.60
72440;DHT22;60446;50.752;4.352;2024-01-10T10:16:45;-5.20;80.20
72440;DHT22;60446;50.752;4.352;2024-01-10T10:19:22;-5.00;80.30
72440;DHT22;60446;50.752;4.352;2024-01-10T10:22:09;-4.90;80.10
72440;DHT22;60446;50.752;4.352;2024-01-10T10:24:39;-4.90;80.30
72440;DHT22;60446;50.752;4.352;2024-01-10T10:27:12;-4.90;79.90
72440;DHT22;60446;50.752;4.352;2024-01-10T10:29:42;-4.80;79.20
72440;DHT22;60446;50.752;4.352;2024-01-10T10:32:12;-4.80;79.10
72440;DHT22;60446;50.752;4.352;2024-01-10T10:34:40;-4.70;78.10
72440;DHT22;60446;50.752;4.352;2024-01-10T10:37:07;-4.60;77.60
72440;DHT22;60446;50.752;4.352;2024-01-10T10:39:35;-4.60;76.70
72440;DHT22;60446;50.752;4.352;2024-01-10T10:42:02;-4.60;76.30
72440;DHT22;60446;50.752;4.352;2024-01-10T10:44:32;-4.60;77.40
72440;DHT22;60446;50.752;4.352;2024-01-10T10:47:04;-4.60;77.00
72440;DHT22;60446;50.752;4.352;2024-01-10T10:49:49;-4.50;76.30
72440;DHT22;60446;50.752;4.352;2024-01-10T10:52:20;-4.50;77.40
72440;DHT22;60446;50.752;4.352;2024-01-10T10:54:49;-4.40;77.20
72440;DHT22;60446;50.752;4.352;2024-01-10T10:57:18;-4.30;75.00
72440;DHT22;60446;50.752;4.352;2024-01-10T10:59:48;-4.20;76.00
72440;DHT22;60446;50.752;4.352;2024-01-10T11:02:21;-4.10;75.00
72440;DHT22;60446;50.752;4.352;2024-01-10T11:04:58;-4.10;73.80
72440;DHT22;60446;50.752;4.352;2024-01-10T11:07:27;-4.00;74.40
72440;DHT22;60446;50.752;4.352;2024-01-10T11:09:55;-3.90;72.90
72440;DHT22;60446;50.752;4.352;2024-01-10T11:24:37;-3.80;71.90
72440;DHT22;60446;50.752;4.352;2024-01-10T11:27:11;-3.70;70.90
72440;DHT22;60446;50.752;4.352;2024-01-10T11:29:40;-3.70;71.70
72440;DHT22;60446;50.752;4.352;2024-01-10T11:32:13;-3.70;71.80
72440;DHT22;60446;50.752;4.352;2024-01-10T11:34:59;-3.60;70.20
72440;DHT22;60446;50.752;4.352;2024-01-10T11:37:43;-3.50;71.20
72440;DHT22;60446;50.752;4.352;2024-01-10T11:40:14;-3.40;71.40
72440;DHT22;60446;50.752;4.352;2024-01-10T11:42:46;-3.20;71.60
72440;DHT22;60446;50.752;4.352;2024-01-10T11:48:02;-2.90;70.10
72440;DHT22;60446;50.752;4.352;2024-01-10T11:50:29;-2.90;70.20
72440;DHT22;60446;50.752;4.352;2024-01-10T11:52:59;-3.00;69.70
72440;DHT22;60446;50.752;4.352;2024-01-10T11:55:47;-3.00;69.60
72440;DHT22;60446;50.752;4.352;2024-01-10T11:58:16;-3.00;70.10
72440;DHT22;60446;50.752;4.352;2024-01-10T12:00:44;-2.90;69.70
72440;DHT22;60446;50.752;4.352;2024-01-10T12:03:14;-3.00;70.70
72440;DHT22;60446;50.752;4.352;2024-01-10T12:05:42;-2.90;69.50
72440;DHT22;60446;50.752;4.352;2024-01-10T12:08:11;-2.90;69.60
72440;DHT22;60446;50.752;4.352;2024-01-10T12:10:45;-2.90;69.10
72440;DHT22;60446;50.752;4.352;2024-01-10T12:13:13;-2.90;67.10
72440;DHT22;60446;50.752;4.352;2024-01-10T12:15:41;-3.10;67.40
72440;DHT22;60446;50.752;4.352;2024-01-10T12:18:08;-3.20;69.50
72440;DHT22;60446;50.752;4.352;2024-01-10T12:20:36;-3.20;70.20
72440;DHT22;60446;50.752;4.352;2024-01-10T12:23:05;-3.10;70.20
72440;DHT22;60446;50.752;4.352;2024-01-10T12:25:32;-2.90;69.10
72440;DHT22;60446;50.752;4.352;2024-01-10T12:28:03;-2.90;69.50
72440;DHT22;60446;50.752;4.352;2024-01-10T12:30:31;-2.90;70.00
72440;DHT22;60446;50.752;4.352;2024-01-10T12:33:01;-2.90;69.50
72440;DHT22;60446;50.752;4.352;2024-01-10T12:35:28;-2.90;69.90
72440;DHT22;60446;50.752;4.352;2024-01-10T12:37:56;-2.70;68.90
72440;DHT22;60446;50.752;4.352;2024-01-10T12:40:26;-2.70;68.60
72440;DHT22;60446;50.752;4.352;2024-01-10T12:43:04;-2.60;69.00
72440;DHT22;60446;50.752;4.352;2024-01-10T12:45:31;-2.60;67.00
72440;DHT22;60446;50.752;4.352;2024-01-10T12:47:59;-2.50;67.60
72440;DHT22;60446;50.752;4.352;2024-01-10T12:50:27;-2.40;67.00
72440;DHT22;60446;50.752;4.352;2024-01-10T12:52:55;-2.30;67.20
72440;DHT22;60446;50.752;4.352;2024-01-10T12:55:26;-2.30;67.30
72440;DHT22;60446;50.752;4.352;2024-01-10T12:57:54;-2.30;65.60
72440;DHT22;60446;50.752;4.352;2024-01-10T13:00:28;-2.20;66.20
72440;DHT22;60446;50.752;4.352;2024-01-10T13:02:56;-2.20;66.50
72440;DHT22;60446;50.752;4.352;2024-01-10T13:05:23;-2.10;66.10
72440;DHT22;60446;50.752;4.352;2024-01-10T13:07:50;-2.10;66.00
72440;DHT22;60446;50.752;4.352;2024-01-10T13:10:18;-2.10;65.80
72440;DHT22;60446;50.752;4.352;2024-01-10T13:12:45;-1.90;66.60
72440;DHT22;60446;50.752;4.352;2024-01-10T13:15:14;-1.80;66.60
72440;DHT22;60446;50.752;4.352;2024-01-10T13:17:41;-1.70;65.20
72440;DHT22;60446;50.752;4.352;2024-01-10T13:20:09;-1.80;64.80
72440;DHT22;60446;50.752;4.352;2024-01-10T13:22:37;-1.80;64.00
72440;DHT22;60446;50.752;4.352;2024-01-10T13:25:04;-1.90;64.80
72440;DHT22;60446;50.752;4.352;2024-01-10T13:27:33;-1.90;64.10
72440;DHT22;60446;50.752;4.352;2024-01-10T13:30:01;-1.90;64.60
72440;DHT22;60446;50.752;4.352;2024-01-10T13:32:28;-1.80;64.90
72440;DHT22;60446;50.752;4.352;2024-01-10T13:34:55;-1.90;64.90
72440;DHT22;60446;50.752;4.352;2024-01-10T13:37:23;-1.90;65.40
72440;DHT22;60446;50.752;4.352;2024-01-10T13:39:53;-1.90;65.60
72440;DHT22;60446;50.752;4.352;2024-01-10T13:42:21;-1.90;65.90
72440;DHT22;60446;50.752;4.352;2024-01-10T13:44:48;-2.00;65.20
72440;DHT22;60446;50.752;4.352;2024-01-10T13:47:17;-2.00;66.10
72440;DHT22;60446;50.752;4.352;2024-01-10T13:49:45;-2.10;66.80
72440;DHT22;60446;50.752;4.352;2024-01-10T13:52:12;-2.10;66.60
72440;DHT22;60446;50.752;4.352;2024-01-10T13:54:40;-2.00;66.50
72440;DHT22;60446;50.752;4.352;2024-01-10T13:57:09;-2.10;66.00
72440;DHT22;60446;50.752;4.352;2024-01-10T13:59:36;-2.20;66.00
72440;DHT22;60446;50.752;4.352;2024-01-10T14:02:03;-2.30;66.60
72440;DHT22;60446;50.752;4.352;2024-01-10T14:04:31;-2.30;66.20
72440;DHT22;60446;50.752;4.352;2024-01-10T14:06:58;-2.40;66.20
72440;DHT22;60446;50.752;4.352;2024-01-10T14:09:25;-2.40;66.90
72440;DHT22;60446;50.752;4.352;2024-01-10T14:11:52;-2.50;67.10
72440;DHT22;60446;50.752;4.352;2024-01-10T14:14:19;-2.40;67.10
72440;DHT22;60446;50.752;4.352;2024-01-10T14:16:52;-2.40;66.80
72440;DHT22;60446;50.752;4.352;2024-01-10T14:19:19;-2.40;65.80
72440;DHT22;60446;50.752;4.352;2024-01-10T14:21:48;-2.50;66.40
72440;DHT22;60446;50.752;4.352;2024-01-10T14:24:15;-2.40;65.80
72440;DHT22;60446;50.752;4.352;2024-01-10T14:26:42;-2.50;66.30
72440;DHT22;60446;50.752;4.352;2024-01-10T14:29:10;-2.50;66.90
72440;DHT22;60446;50.752;4.352;2024-01-10T14:31:37;-2.50;67.30
72440;DHT22;60446;50.752;4.352;2024-01-10T14:34:26;-2.50;68.10
72440;DHT22;60446;50.752;4.352;2024-01-10T14:36:54;-2.50;67.80
72440;DHT22;60446;50.752;4.352;2024-01-10T14:39:21;-2.50;68.00
72440;DHT22;60446;50.752;4.352;2024-01-10T14:41:49;-2.60;67.90
72440;DHT22;60446;50.752;4.352;2024-01-10T14:44:17;-2.60;69.00
72440;DHT22;60446;50.752;4.352;2024-01-10T14:46:45;-2.60;68.60
72440;DHT22;60446;50.752;4.352;2024-01-10T14:49:26;-2.70;68.10
72440;DHT22;60446;50.752;4.352;2024-01-10T14:51:53;-2.70;68.80
72440;DHT22;60446;50.752;4.352;2024-01-10T14:54:20;-2.70;68.40
72440;DHT22;60446;50.752;4.352;2024-01-10T14:56:49;-2.70;68.60
72440;DHT22;60446;50.752;4.352;2024-01-10T14:59:18;-2.70;68.80
72440;DHT22;60446;50.752;4.352;2024-01-10T15:01:58;-2.60;69.30
72440;DHT22;60446;50.752;4.352;2024-01-10T15:04:25;-2.50;69.50
72440;DHT22;60446;50.752;4.352;2024-01-10T15:06:53;-2.40;70.40
72440;DHT22;60446;50.752;4.352;2024-01-10T15:09:20;-2.30;68.60
72440;DHT22;60446;50.752;4.352;2024-01-10T15:11:47;-2.20;67.60
72440;DHT22;60446;50.752;4.352;2024-01-10T15:14:14;-2.20;68.50
72440;DHT22;60446;50.752;4.352;2024-01-10T15:16:42;-2.20;68.80
72440;DHT22;60446;50.752;4.352;2024-01-10T15:19:10;-2.20;67.30
72440;DHT22;60446;50.752;4.352;2024-01-10T15:21:37;-2.10;67.90
72440;DHT22;60446;50.752;4.352;2024-01-10T15:24:08;-2.10;67.10
72440;DHT22;60446;50.752;4.352;2024-01-10T15:26:35;-2.10;67.40
72440;DHT22;60446;50.752;4.352;2024-01-10T15:29:02;-2.10;67.10
72440;DHT22;60446;50.752;4.352;2024-01-10T15:31:31;-2.10;67.90
72440;DHT22;60446;50.752;4.352;2024-01-10T15:33:59;-2.10;68.40
72440;DHT22;60446;50.752;4.352;2024-01-10T15:36:26;-2.00;68.90
72440;DHT22;60446;50.752;4.352;2024-01-10T15:38:55;-2.00;68.70
72440;DHT22;60446;50.752;4.352;2024-01-10T15:41:22;-2.00;68.70
72440;DHT22;60446;50.752;4.352;2024-01-10T15:43:49;-2.00;67.80
72440;DHT22;60446;50.752;4.352;2024-01-10T15:46:20;-1.90;68.50
72440;DHT22;60446;50.752;4.352;2024-01-10T15:48:47;-2.00;67.80
72440;DHT22;60446;50.752;4.352;2024-01-10T15:51:15;-2.00;69.60
72440;DHT22;60446;50.752;4.352;2024-01-10T15:53:42;-2.00;68.10